createdAt,value
2019-05-23T00:01:26.936Z,20.00
2019-05-23T00:04:30.541Z,20.00
2019-05-23T00:07:24.670Z,19.90
2019-05-23T00:10:24.451Z,20.00
2019-05-23T00:13:06.234Z,20.00
2019-05-23T00:15:47.724Z,20.00
2019-05-23T00:18:24.471Z,20.20
2019-05-23T00:20:59.592Z,20.30
2019-05-23T00:23:33.280Z,20.10
2019-05-23T00:26:07.566Z,20.00
2019-05-23T00:28:42.213Z,20.00
2019-05-23T00:31:26.224Z,20.20
2019-05-23T00:33:58.806Z,20.20
2019-05-23T00:36:32.155Z,20.50
2019-05-23T00:39:07.904Z,20.60
2019-05-23T00:41:42.619Z,20.70
2019-05-23T00:44:21.598Z,20.70
2019-05-23T00:46:55.187Z,20.60
2019-05-23T00:49:29.898Z,20.70
2019-05-23T00:52:03.195Z,20.60
2019-05-23T00:54:40.107Z,20.60
2019-05-23T00:57:14.426Z,20.50
2019-05-23T00:59:48.085Z,20.60
2019-05-23T01:02:22.147Z,20.40
2019-05-23T01:04:56.435Z,20.40
2019-05-23T01:07:30.973Z,20.50
2019-05-23T01:10:03.973Z,20.40
2019-05-23T01:12:37.887Z,20.20
2019-05-23T01:15:13.855Z,20.10
2019-05-23T01:17:48.359Z,20.10
2019-05-23T01:20:26.457Z,20.10
2019-05-23T01:23:02.629Z,19.90
2019-05-23T01:25:37.997Z,19.90
2019-05-23T01:28:11.077Z,19.80
2019-05-23T01:30:47.059Z,20.00
2019-05-23T01:33:20.667Z,20.00
2019-05-23T01:35:53.658Z,20.10
2019-05-23T01:38:25.985Z,20.10
2019-05-23T01:40:59.168Z,20.10
2019-05-23T01:43:34.434Z,20.00
2019-05-23T01:46:07.357Z,20.10
2019-05-23T01:48:40.847Z,20.00
2019-05-23T01:51:14.702Z,20.00
2019-05-23T01:53:48.566Z,20.00
2019-05-23T01:56:20.310Z,19.90
2019-05-23T01:58:53.918Z,20.10
2019-05-23T02:01:26.236Z,20.00
2019-05-23T02:03:58.548Z,19.90
2019-05-23T02:06:30.591Z,19.80
2019-05-23T02:09:04.542Z,19.70
2019-05-23T02:11:37.513Z,19.60
2019-05-23T02:14:11.992Z,19.50
2019-05-23T02:16:44.896Z,19.50
2019-05-23T02:19:18.526Z,19.60
2019-05-23T02:21:52.051Z,19.50
2019-05-23T02:24:26.278Z,19.40
2019-05-23T02:26:59.407Z,19.50
2019-05-23T02:29:31.802Z,19.40
2019-05-23T02:32:07.746Z,19.50
2019-05-23T02:34:41.731Z,19.40
2019-05-23T02:37:32.179Z,19.40
2019-05-23T02:40:15.959Z,19.40
2019-05-23T02:42:55.945Z,19.50
2019-05-23T02:45:43.953Z,19.60
2019-05-23T02:48:22.141Z,19.50
2019-05-23T02:51:00.247Z,19.50
2019-05-23T02:53:35.965Z,19.50
2019-05-23T02:56:12.078Z,19.50
2019-05-23T02:59:11.227Z,19.50
2019-05-23T03:02:09.261Z,19.60
2019-05-23T03:04:41.624Z,19.60
2019-05-23T03:07:15.295Z,19.30
2019-05-23T03:09:48.838Z,19.20
2019-05-23T03:12:24.424Z,19.20
2019-05-23T03:14:54.468Z,19.20
2019-05-23T03:17:29.222Z,19.20
2019-05-23T03:20:03.388Z,19.20
2019-05-23T03:22:42.884Z,19.00
2019-05-23T03:26:02.008Z,19.00
2019-05-23T03:28:41.105Z,18.90
2019-05-23T03:31:29.469Z,19.00
2019-05-23T03:33:56.401Z,19.10
2019-05-23T03:36:29.414Z,19.20
2019-05-23T03:39:01.659Z,19.20
2019-05-23T03:41:35.388Z,19.20
2019-05-23T03:44:09.216Z,19.10
2019-05-23T03:46:45.960Z,19.00
2019-05-23T03:49:19.622Z,19.00
2019-05-23T03:51:51.548Z,19.00
2019-05-23T03:54:24.846Z,19.10
2019-05-23T03:56:56.460Z,19.10
2019-05-23T03:59:31.495Z,19.00
2019-05-23T04:02:05.107Z,18.90
2019-05-23T04:04:37.036Z,18.80
2019-05-23T04:07:11.346Z,18.80
2019-05-23T04:09:44.435Z,18.80
2019-05-23T04:12:16.905Z,18.80
2019-05-23T04:14:49.076Z,18.80
2019-05-23T04:17:20.647Z,18.70
2019-05-23T04:19:53.636Z,18.70
2019-05-23T04:22:25.991Z,18.60
2019-05-23T04:25:01.971Z,18.60
2019-05-23T04:27:32.506Z,18.60
2019-05-23T04:30:07.090Z,18.60
2019-05-23T04:32:40.037Z,18.60
2019-05-23T04:35:12.944Z,18.60
2019-05-23T04:37:46.651Z,18.60
2019-05-23T04:40:19.638Z,18.50
2019-05-23T04:42:52.287Z,18.40
2019-05-23T04:45:26.268Z,18.40
2019-05-23T04:47:58.709Z,18.40
2019-05-23T04:50:32.710Z,18.30
2019-05-23T04:53:06.472Z,18.20
2019-05-23T04:55:39.643Z,18.20
2019-05-23T04:58:12.306Z,18.20
2019-05-23T05:00:45.058Z,18.30
2019-05-23T05:03:18.771Z,18.40
2019-05-23T05:05:51.847Z,18.40
2019-05-23T05:08:24.054Z,18.20
2019-05-23T05:10:55.967Z,18.10
2019-05-23T05:13:28.019Z,17.90
2019-05-23T05:15:59.471Z,18.00
2019-05-23T05:18:32.547Z,17.90
2019-05-23T05:21:05.091Z,17.90
2019-05-23T05:23:39.379Z,17.90
2019-05-23T05:26:17.150Z,18.00
2019-05-23T05:28:51.103Z,18.10
2019-05-23T05:31:24.628Z,18.10
2019-05-23T05:33:58.099Z,18.00
2019-05-23T05:36:30.287Z,18.00
2019-05-23T05:39:04.062Z,18.00
2019-05-23T05:41:38.439Z,17.90
2019-05-23T05:44:11.977Z,17.90
2019-05-23T05:46:44.496Z,18.00
2019-05-23T05:49:17.696Z,18.00
2019-05-23T05:51:51.008Z,17.90
2019-05-23T05:54:24.823Z,18.00
2019-05-23T05:56:57.351Z,17.90
2019-05-23T05:59:30.455Z,17.90
2019-05-23T06:02:04.399Z,17.90
2019-05-23T06:04:36.407Z,17.90
2019-05-23T06:07:30.948Z,18.00
2019-05-23T06:10:05.925Z,18.00
2019-05-23T06:12:38.351Z,18.10
2019-05-23T06:15:10.618Z,18.20
2019-05-23T06:17:43.493Z,18.20
2019-05-23T06:20:16.319Z,18.10
2019-05-23T06:22:48.334Z,18.10
2019-05-23T06:25:21.660Z,18.10
2019-05-23T06:27:54.647Z,18.10
2019-05-23T06:30:32.764Z,18.10
2019-05-23T06:33:21.792Z,18.10
2019-05-23T06:35:40.424Z,18.10
2019-05-23T06:38:13.887Z,18.00
2019-05-23T06:40:48.536Z,18.00
2019-05-23T06:43:20.631Z,17.90
2019-05-23T06:45:54.267Z,17.90
2019-05-23T06:48:29.047Z,17.80
2019-05-23T06:51:02.035Z,17.70
2019-05-23T06:53:34.715Z,17.70
2019-05-23T06:56:08.614Z,17.70
2019-05-23T06:58:41.787Z,17.90
2019-05-23T07:01:15.876Z,18.00
2019-05-23T07:03:48.485Z,18.00
2019-05-23T07:06:23.343Z,18.10
2019-05-23T07:08:56.943Z,18.00
2019-05-23T07:11:29.743Z,18.00
2019-05-23T07:14:02.057Z,18.00
2019-05-23T07:16:35.012Z,18.00
2019-05-23T07:19:09.787Z,18.00
2019-05-23T07:21:43.977Z,18.00
2019-05-23T07:24:17.154Z,18.20
2019-05-23T07:26:50.010Z,18.20
2019-05-23T07:29:22.962Z,18.30
2019-05-23T07:31:57.568Z,18.30
2019-05-23T07:34:30.209Z,18.40
2019-05-23T07:37:02.219Z,18.40
2019-05-23T07:39:34.836Z,18.40
2019-05-23T07:42:09.627Z,18.60
2019-05-23T07:44:48.440Z,18.70
2019-05-23T07:47:17.176Z,18.80
2019-05-23T07:49:49.187Z,18.90
2019-05-23T07:52:22.801Z,19.00
2019-05-23T07:55:06.487Z,19.30
2019-05-23T07:57:40.460Z,19.70
2019-05-23T08:00:21.514Z,19.80
2019-05-23T08:02:56.993Z,19.80
2019-05-23T08:05:30.295Z,19.90
2019-05-23T08:08:04.518Z,20.20
2019-05-23T08:10:37.202Z,20.50
2019-05-23T08:13:12.055Z,20.70
2019-05-23T08:15:46.283Z,20.90
2019-05-23T08:18:20.191Z,21.10
2019-05-23T08:20:52.715Z,21.30
2019-05-23T08:23:25.583Z,21.30
2019-05-23T08:25:59.073Z,21.60
2019-05-23T08:28:32.834Z,21.70
2019-05-23T08:31:07.842Z,21.50
2019-05-23T08:33:41.568Z,21.80
2019-05-23T08:36:16.097Z,21.70
2019-05-23T08:38:50.147Z,21.80
2019-05-23T08:41:23.441Z,21.70
2019-05-23T08:43:59.387Z,21.80
2019-05-23T08:46:32.991Z,22.00
2019-05-23T08:49:09.178Z,22.10
2019-05-23T08:51:42.926Z,22.30
2019-05-23T08:54:16.245Z,22.20
2019-05-23T08:56:49.944Z,22.30
2019-05-23T08:59:25.453Z,22.40
2019-05-23T09:01:58.687Z,22.50
2019-05-23T09:04:31.765Z,22.60
2019-05-23T09:07:07.409Z,22.30
2019-05-23T09:09:41.284Z,22.20
2019-05-23T09:12:14.486Z,22.10
2019-05-23T09:14:47.612Z,22.10
2019-05-23T09:17:22.079Z,22.20
2019-05-23T09:19:55.979Z,22.20
2019-05-23T09:22:29.701Z,22.20
2019-05-23T09:25:03.180Z,22.20
2019-05-23T09:27:37.212Z,22.10
2019-05-23T09:30:11.499Z,22.20
2019-05-23T09:32:44.469Z,22.20
2019-05-23T09:35:22.425Z,22.40
2019-05-23T09:37:55.607Z,22.40
2019-05-23T09:40:28.139Z,22.30
2019-05-23T09:43:00.301Z,22.20
2019-05-23T09:45:33.123Z,22.30
2019-05-23T09:48:06.158Z,22.40
2019-05-23T09:50:39.091Z,22.30
2019-05-23T09:53:11.666Z,22.40
2019-05-23T09:55:45.869Z,22.60
2019-05-23T09:58:19.268Z,22.90
2019-05-23T10:00:54.045Z,23.10
2019-05-23T10:03:27.361Z,23.10
2019-05-23T10:06:00.368Z,22.90
2019-05-23T10:08:32.509Z,23.00
2019-05-23T10:11:07.703Z,23.10
2019-05-23T10:13:46.850Z,23.00
2019-05-23T10:16:20.892Z,23.00
2019-05-23T10:18:53.811Z,23.00
2019-05-23T10:21:26.290Z,23.10
2019-05-23T10:23:59.538Z,23.00
2019-05-23T10:26:48.123Z,23.70
2019-05-23T10:29:21.489Z,24.50
2019-05-23T10:31:55.355Z,24.50
2019-05-23T10:34:27.446Z,24.70
2019-05-23T10:37:02.463Z,25.10
2019-05-23T10:39:36.013Z,25.40
2019-05-23T10:42:10.307Z,25.40
2019-05-23T10:44:44.950Z,25.40
2019-05-23T10:47:18.034Z,25.60
2019-05-23T10:49:50.740Z,26.00
2019-05-23T10:52:24.959Z,26.00
2019-05-23T10:54:58.955Z,26.10
2019-05-23T10:57:33.593Z,26.40
2019-05-23T11:00:12.959Z,26.30
2019-05-23T11:02:47.070Z,26.20
2019-05-23T11:05:23.508Z,26.30
2019-05-23T11:07:59.934Z,26.60
2019-05-23T11:10:33.590Z,26.70
2019-05-23T11:13:06.995Z,26.50
2019-05-23T11:15:41.364Z,26.30
2019-05-23T11:18:14.264Z,26.40
2019-05-23T11:20:48.993Z,26.70
2019-05-23T11:23:29.128Z,26.80
2019-05-23T11:26:09.149Z,26.90
2019-05-23T11:28:43.595Z,26.60
2019-05-23T11:31:17.335Z,26.50
2019-05-23T11:33:50.792Z,27.00
2019-05-23T11:36:34.578Z,27.10
2019-05-23T11:39:01.099Z,27.10
2019-05-23T11:41:35.254Z,27.40
2019-05-23T11:44:12.407Z,27.50
2019-05-23T11:46:46.481Z,27.60
2019-05-23T11:49:19.287Z,27.40
2019-05-23T11:51:53.411Z,27.70
2019-05-23T11:54:28.278Z,27.70
2019-05-23T11:57:01.732Z,28.10
2019-05-23T11:59:37.259Z,28.20
2019-05-23T12:02:21.007Z,28.30
2019-05-23T12:04:55.914Z,28.50
2019-05-23T12:07:33.066Z,28.60
2019-05-23T12:10:06.612Z,28.40
2019-05-23T12:12:39.557Z,28.20
2019-05-23T12:15:17.854Z,28.40
2019-05-23T12:17:52.189Z,28.50
2019-05-23T12:20:25.055Z,28.40
2019-05-23T12:22:57.942Z,28.40
2019-05-23T12:25:32.505Z,28.50
2019-05-23T12:28:07.095Z,28.60
2019-05-23T12:30:40.057Z,28.60
2019-05-23T12:33:13.774Z,28.50
2019-05-23T12:35:46.560Z,28.60
2019-05-23T12:38:19.543Z,28.80
2019-05-23T12:40:52.591Z,29.00
2019-05-23T12:43:25.750Z,28.80
2019-05-23T12:45:59.118Z,28.90
2019-05-23T12:48:38.710Z,29.10
2019-05-23T12:51:12.551Z,29.20
2019-05-23T12:53:46.802Z,29.10
2019-05-23T12:56:20.107Z,29.10
2019-05-23T12:58:54.649Z,28.90
2019-05-23T13:01:29.239Z,29.00
2019-05-23T13:04:02.436Z,29.30
2019-05-23T13:06:36.836Z,29.30
2019-05-23T13:09:11.938Z,29.40
2019-05-23T13:11:46.747Z,29.30
2019-05-23T13:14:19.962Z,29.20
2019-05-23T13:16:53.922Z,29.40
2019-05-23T13:19:27.862Z,29.20
2019-05-23T13:22:01.866Z,28.70
2019-05-23T13:24:51.117Z,28.80
2019-05-23T13:27:11.882Z,28.60
2019-05-23T13:29:45.535Z,28.50
2019-05-23T13:32:19.561Z,28.30
2019-05-23T13:34:53.582Z,28.30
2019-05-23T13:37:26.351Z,28.40
2019-05-23T13:40:01.327Z,28.50
2019-05-23T13:42:35.802Z,28.70
2019-05-23T13:45:10.682Z,28.70
2019-05-23T13:47:43.991Z,28.70
2019-05-23T13:50:16.977Z,29.00
2019-05-23T13:52:51.373Z,29.20
2019-05-23T13:55:25.723Z,29.20
2019-05-23T13:57:59.717Z,29.30
2019-05-23T14:03:05.745Z,29.50
2019-05-23T14:05:38.849Z,29.40
2019-05-23T14:08:13.601Z,29.30
2019-05-23T14:10:47.125Z,29.30
2019-05-23T14:13:21.724Z,28.90
2019-05-23T14:15:55.033Z,28.80
2019-05-23T14:18:29.870Z,28.90
2019-05-23T14:21:04.001Z,29.10
2019-05-23T14:23:37.744Z,29.30
2019-05-23T14:26:11.693Z,29.00
2019-05-23T14:28:44.144Z,28.60
2019-05-23T14:31:23.157Z,28.70
2019-05-23T14:34:01.079Z,28.40
2019-05-23T14:36:52.241Z,28.20
2019-05-23T14:39:42.978Z,27.90
2019-05-23T14:42:34.419Z,27.70
2019-05-23T14:45:15.989Z,27.50
2019-05-23T14:47:56.935Z,27.20
2019-05-23T14:50:45.829Z,27.00
2019-05-23T14:53:20.631Z,27.00
2019-05-23T14:55:53.892Z,27.00
2019-05-23T14:58:28.212Z,27.00
2019-05-23T15:01:03.338Z,26.90
2019-05-23T15:03:36.128Z,26.90
2019-05-23T15:06:09.949Z,26.90
2019-05-23T15:08:51.163Z,27.00
2019-05-23T15:11:18.191Z,26.90
2019-05-23T15:13:52.154Z,26.90
2019-05-23T15:16:25.040Z,27.30
2019-05-23T15:18:58.456Z,27.70
2019-05-23T15:21:31.833Z,28.00
2019-05-23T15:24:04.920Z,28.20
2019-05-23T15:26:39.548Z,28.40
2019-05-23T15:29:14.485Z,28.50
2019-05-23T15:32:01.692Z,28.50
2019-05-23T15:34:24.365Z,28.70
2019-05-23T15:36:57.471Z,28.40
2019-05-23T15:39:31.307Z,28.00
2019-05-23T15:42:05.092Z,27.70
2019-05-23T15:44:38.827Z,27.30
2019-05-23T15:47:13.532Z,27.00
2019-05-23T15:49:49.413Z,26.70
2019-05-23T15:52:48.131Z,26.60
2019-05-23T15:55:41.493Z,26.50
2019-05-23T15:58:37.189Z,26.30
2019-05-23T16:01:16.730Z,26.20
2019-05-23T16:03:55.541Z,26.00
2019-05-23T16:06:31.620Z,25.90
2019-05-23T16:09:25.579Z,25.80
2019-05-23T16:12:06.998Z,25.60
2019-05-23T16:14:44.672Z,26.00
2019-05-23T16:17:17.915Z,26.60
2019-05-23T16:19:53.756Z,26.90
2019-05-23T16:22:27.464Z,26.60
2019-05-23T16:24:59.862Z,26.00
2019-05-23T16:27:33.775Z,25.80
2019-05-23T16:30:09.583Z,25.60
2019-05-23T16:32:46.462Z,25.80
2019-05-23T16:35:18.935Z,25.50
2019-05-23T16:37:51.441Z,25.50
2019-05-23T16:40:26.023Z,25.40
2019-05-23T16:42:59.777Z,25.30
2019-05-23T16:45:32.347Z,25.30
2019-05-23T16:48:08.030Z,25.20
2019-05-23T16:50:41.795Z,25.20
2019-05-23T16:53:15.703Z,25.10
2019-05-23T16:56:16.651Z,25.00
2019-05-23T16:59:09.686Z,24.90
2019-05-23T17:02:20.225Z,24.80
2019-05-23T17:05:16.147Z,24.70
2019-05-23T17:08:06.035Z,24.60
2019-05-23T17:11:09.458Z,24.50
2019-05-23T17:13:48.113Z,24.40
2019-05-23T17:16:45.560Z,24.20
2019-05-23T17:19:35.380Z,24.00
2019-05-23T17:22:21.869Z,23.70
2019-05-23T17:25:12.882Z,23.60
2019-05-23T17:27:52.243Z,23.40
2019-05-23T17:30:50.441Z,23.20
2019-05-23T17:33:24.451Z,23.10
2019-05-23T17:35:57.480Z,22.90
2019-05-23T17:38:30.545Z,22.80
2019-05-23T17:41:04.242Z,22.80
2019-05-23T17:43:38.148Z,22.70
2019-05-23T17:46:12.833Z,22.60
2019-05-23T17:48:46.347Z,22.60
2019-05-23T17:51:19.965Z,22.60
2019-05-23T17:53:56.522Z,22.40
2019-05-23T17:56:32.230Z,22.30
2019-05-23T17:59:10.444Z,22.20
2019-05-23T18:04:52.843Z,22.10
2019-05-23T18:07:28.789Z,22.00
2019-05-23T18:10:06.154Z,21.80
2019-05-23T18:12:39.418Z,21.70
2019-05-23T18:15:17.155Z,21.70
2019-05-23T18:17:58.807Z,21.70
2019-05-23T18:20:33.533Z,21.60
2019-05-23T18:23:07.748Z,21.60
2019-05-23T18:25:46.243Z,21.60
2019-05-23T18:28:21.010Z,21.60
2019-05-23T18:31:08.498Z,21.60
2019-05-23T18:33:41.102Z,21.50
2019-05-23T18:36:15.940Z,21.40
2019-05-23T18:38:49.406Z,21.30
2019-05-23T18:41:24.350Z,21.30
2019-05-23T18:43:59.443Z,21.30
2019-05-23T18:46:40.096Z,21.30
2019-05-23T18:49:15.582Z,21.30
2019-05-23T18:51:50.908Z,21.20
2019-05-23T18:54:25.771Z,21.20
2019-05-23T18:57:00.825Z,21.20
2019-05-23T18:59:37.225Z,21.10
2019-05-23T19:02:14.129Z,21.20
2019-05-23T19:04:57.665Z,21.20
2019-05-23T19:07:31.215Z,21.30
2019-05-23T19:10:05.672Z,21.50
2019-05-23T19:12:40.072Z,21.40
2019-05-23T19:15:15.291Z,21.30
2019-05-23T19:17:49.628Z,21.20
2019-05-23T19:20:23.414Z,21.00
2019-05-23T19:22:57.548Z,20.90
2019-05-23T19:25:32.468Z,20.70
2019-05-23T19:28:11.513Z,20.60
2019-05-23T19:30:46.128Z,20.60
2019-05-23T19:33:24.107Z,20.50
2019-05-23T19:36:01.783Z,20.40
2019-05-23T19:38:38.338Z,20.40
2019-05-23T19:41:13.494Z,20.40
2019-05-23T19:43:48.195Z,20.50
2019-05-23T19:46:22.488Z,20.30
2019-05-23T19:48:58.374Z,20.40
2019-05-23T19:51:32.471Z,20.40
2019-05-23T19:54:09.040Z,20.30
2019-05-23T19:56:42.653Z,20.30
2019-05-23T19:59:15.852Z,20.20
2019-05-23T20:02:17.892Z,20.00
2019-05-23T20:05:08.043Z,20.00
2019-05-23T20:07:43.227Z,20.00
2019-05-23T20:10:19.474Z,20.00
2019-05-23T20:12:55.693Z,20.00
2019-05-23T20:15:32.685Z,20.00
2019-05-23T20:18:07.706Z,19.90
2019-05-23T20:20:42.658Z,19.90
2019-05-23T20:23:17.416Z,19.90
2019-05-23T20:25:50.779Z,19.80
2019-05-23T20:28:26.686Z,19.70
2019-05-23T20:31:00.766Z,19.70
2019-05-23T20:33:34.457Z,19.70
2019-05-23T20:36:12.861Z,19.70
2019-05-23T20:38:47.611Z,19.60
2019-05-23T20:41:23.841Z,19.60
2019-05-23T20:44:06.424Z,19.50
2019-05-23T20:46:42.782Z,19.50
2019-05-23T20:49:17.134Z,19.50
2019-05-23T20:51:52.929Z,19.40
2019-05-23T20:54:33.735Z,19.30
2019-05-23T20:57:07.599Z,19.30
2019-05-23T20:59:44.122Z,19.40
2019-05-23T21:02:19.074Z,19.40
2019-05-23T21:04:54.809Z,19.40
2019-05-23T21:07:28.230Z,19.40
2019-05-23T21:10:02.345Z,19.40
2019-05-23T21:12:35.922Z,19.30
2019-05-23T21:15:11.088Z,19.30
2019-05-23T21:17:44.299Z,19.40
2019-05-23T21:20:18.343Z,19.30
2019-05-23T21:22:52.053Z,19.30
2019-05-23T21:25:26.663Z,19.40
2019-05-23T21:28:01.224Z,19.40
2019-05-23T21:30:35.525Z,19.40
2019-05-23T21:33:09.923Z,19.40
2019-05-23T21:35:44.896Z,19.40
2019-05-23T21:38:19.011Z,19.50
2019-05-23T21:40:52.875Z,19.50
2019-05-23T21:43:36.392Z,19.50
2019-05-23T21:46:10.996Z,19.50
2019-05-23T21:48:48.181Z,19.50
2019-05-23T21:51:22.189Z,19.60
2019-05-23T21:53:57.458Z,19.60
2019-05-23T21:56:32.159Z,19.70
2019-05-23T21:59:04.986Z,19.70
2019-05-23T22:02:05.676Z,19.70
2019-05-23T22:05:03.879Z,19.60
2019-05-23T22:07:41.055Z,19.70
2019-05-23T22:10:14.758Z,19.70
2019-05-23T22:13:03.521Z,19.80
2019-05-23T22:15:39.750Z,19.80
2019-05-23T22:18:12.879Z,19.90
2019-05-23T22:20:45.429Z,19.90
2019-05-23T22:23:21.652Z,20.00
2019-05-23T22:25:54.703Z,19.90
2019-05-23T22:28:26.618Z,19.90
2019-05-23T22:31:00.884Z,19.90
2019-05-23T22:33:35.706Z,19.80
2019-05-23T22:36:09.031Z,19.80
2019-05-23T22:38:42.400Z,19.80
2019-05-23T22:41:16.249Z,19.80
2019-05-23T22:43:48.612Z,19.80
2019-05-23T22:46:23.701Z,19.70
2019-05-23T22:48:58.760Z,19.70
2019-05-23T22:51:31.934Z,19.50
2019-05-23T22:54:04.990Z,19.50
2019-05-23T22:56:37.819Z,19.50
2019-05-23T22:59:11.033Z,19.50
2019-05-23T23:01:44.318Z,19.40
2019-05-23T23:04:17.447Z,19.50
2019-05-23T23:06:51.928Z,19.50
2019-05-23T23:09:25.214Z,19.40
2019-05-23T23:11:59.903Z,19.40
2019-05-23T23:14:47.068Z,19.40
2019-05-23T23:17:21.977Z,19.30
2019-05-23T23:19:55.219Z,19.20
2019-05-23T23:22:34.553Z,19.10
2019-05-23T23:25:09.369Z,19.00
2019-05-23T23:27:43.072Z,19.00
2019-05-23T23:30:19.698Z,19.10
2019-05-23T23:32:52.164Z,19.10
2019-05-23T23:35:25.989Z,19.00
2019-05-23T23:38:00.329Z,19.00
2019-05-23T23:40:32.967Z,19.00
2019-05-23T23:43:06.351Z,18.90
2019-05-23T23:45:57.101Z,18.90
2019-05-23T23:48:47.078Z,19.00
2019-05-23T23:51:39.017Z,19.10
2019-05-23T23:54:31.150Z,19.10
2019-05-23T23:57:20.822Z,19.10
2019-05-23T23:59:51.957Z,19.10
